createdAt,value
2022-12-01T00:00:10.477Z,20.70
2022-12-01T00:10:26.926Z,23.02
2022-12-01T00:20:30.340Z,32.63
2022-12-01T00:30:34.584Z,33.10
2022-12-01T00:40:37.921Z,21.33
2022-12-01T00:50:42.416Z,28.52
2022-12-01T01:00:45.421Z,22.33
2022-12-01T01:10:50.095Z,23.00
2022-12-01T01:20:56.809Z,25.92
2022-12-01T01:31:05.902Z,28.55
2022-12-01T01:41:09.337Z,34.90
2022-12-01T01:51:14.928Z,27.05
2022-12-01T02:01:17.932Z,24.63
2022-12-01T02:11:52.264Z,17.45
2022-12-01T02:22:08.692Z,22.30
2022-12-01T02:32:20.217Z,31.75
2022-12-01T02:42:49.943Z,25.25
2022-12-01T02:52:55.186Z,26.95
2022-12-01T03:03:21.895Z,25.30
2022-12-01T03:13:38.779Z,24.20
2022-12-01T03:23:48.645Z,22.50
2022-12-01T03:33:58.403Z,19.25
2022-12-01T03:44:07.984Z,24.02
2022-12-01T03:54:19.704Z,40.97
2022-12-01T04:14:26.710Z,27.65
2022-12-01T04:24:29.588Z,29.23
2022-12-01T04:34:33.976Z,19.33
2022-12-01T04:44:37.159Z,22.05
2022-12-01T04:54:41.555Z,22.67
2022-12-01T05:04:46.291Z,27.77
2022-12-01T05:14:50.704Z,33.10
2022-12-01T05:24:53.750Z,27.20
2022-12-01T05:34:58.069Z,59.50
2022-12-01T05:45:01.146Z,29.65
2022-12-01T05:55:07.039Z,24.95
2022-12-01T06:05:10.415Z,31.75
2022-12-01T06:15:14.989Z,33.85
2022-12-01T06:25:18.155Z,42.85
2022-12-01T06:35:22.886Z,36.75
2022-12-01T06:45:25.803Z,27.13
2022-12-01T06:55:30.409Z,37.50
2022-12-01T07:05:33.688Z,25.50
2022-12-01T07:15:38.903Z,42.88
2022-12-01T07:25:42.544Z,37.03
2022-12-01T07:35:48.280Z,43.90
2022-12-01T07:45:51.304Z,46.35
2022-12-01T07:55:56.031Z,42.97
2022-12-01T08:05:59.867Z,44.15
2022-12-01T08:16:06.622Z,50.70
2022-12-01T08:26:13.186Z,48.67
2022-12-01T08:36:18.103Z,63.40
2022-12-01T08:46:21.448Z,67.28
2022-12-01T08:56:27.231Z,49.45
2022-12-01T09:06:30.313Z,44.33
2022-12-01T09:16:34.819Z,69.15
2022-12-01T09:26:37.808Z,69.47
2022-12-01T09:36:42.564Z,89.85
2022-12-01T09:46:50.129Z,62.55
2022-12-01T09:56:57.163Z,70.50
2022-12-01T10:07:02.529Z,55.22
2022-12-01T10:17:19.425Z,57.83
2022-12-01T10:27:36.247Z,75.93
2022-12-01T10:37:40.667Z,77.20
2022-12-01T10:48:09.126Z,75.25
2022-12-01T10:58:17.322Z,83.40
2022-12-01T11:08:25.962Z,75.30
2022-12-01T11:18:33.906Z,69.68
2022-12-01T11:28:40.472Z,65.68
2022-12-01T11:38:45.051Z,62.42
2022-12-01T11:48:58.257Z,116.07
2022-12-01T11:59:06.177Z,59.08
2022-12-01T12:09:45.097Z,74.32
2022-12-01T12:20:19.569Z,81.18
2022-12-01T12:30:26.420Z,59.42
2022-12-01T12:40:42.852Z,57.85
2022-12-01T12:50:53.434Z,58.50
2022-12-01T13:01:01.839Z,59.10
2022-12-01T13:11:10.632Z,50.95
2022-12-01T13:21:18.866Z,53.42
2022-12-01T13:31:23.558Z,45.45
2022-12-01T13:41:32.722Z,58.72
2022-12-01T13:52:09.264Z,52.10
2022-12-01T14:02:22.248Z,221.75
2022-12-01T14:12:30.478Z,124.60
2022-12-01T14:22:38.613Z,71.32
2022-12-01T14:32:41.563Z,66.28
2022-12-01T14:43:12.266Z,62.53
2022-12-01T14:53:25.406Z,57.42
2022-12-01T15:03:35.614Z,58.03
2022-12-01T15:13:48.291Z,62.03
2022-12-01T15:24:00.490Z,65.20
2022-12-01T15:44:20.718Z,82.65
2022-12-01T15:54:26.688Z,89.55
2022-12-01T16:04:32.497Z,100.90
2022-12-01T16:14:36.314Z,82.85
2022-12-01T16:24:48.036Z,76.95
2022-12-01T16:34:52.812Z,55.85
2022-12-01T16:44:59.767Z,73.90
2022-12-01T16:55:03.017Z,62.90
2022-12-01T17:05:09.551Z,75.38
2022-12-01T17:15:13.088Z,73.05
2022-12-01T17:25:17.736Z,68.05
2022-12-01T17:35:20.925Z,59.83
2022-12-01T17:45:27.901Z,70.60
2022-12-01T17:55:31.975Z,70.45
2022-12-01T18:05:36.817Z,74.45
2022-12-01T18:15:40.776Z,43.72
2022-12-01T18:25:47.740Z,35.03
2022-12-01T18:35:51.834Z,45.28
2022-12-01T18:46:00.337Z,53.88
2022-12-01T18:56:04.672Z,34.03
2022-12-01T19:06:12.746Z,44.85
2022-12-01T19:16:18.003Z,43.53
2022-12-01T19:26:23.311Z,51.53
2022-12-01T19:36:27.554Z,65.35
2022-12-01T19:46:32.051Z,43.90
2022-12-01T19:56:35.199Z,37.88
2022-12-01T20:06:39.650Z,46.65
2022-12-01T20:16:42.678Z,40.50
2022-12-01T20:26:50.323Z,37.92
2022-12-01T20:36:53.671Z,48.15
2022-12-01T20:46:58.040Z,53.85
2022-12-01T20:57:01.026Z,45.00
2022-12-01T21:07:05.442Z,42.80
2022-12-01T21:17:18.970Z,35.05
2022-12-01T21:27:23.412Z,38.00
2022-12-01T21:37:28.328Z,40.03
2022-12-01T21:47:32.670Z,57.22
2022-12-01T21:57:43.125Z,40.95
2022-12-01T22:07:47.674Z,63.05
2022-12-01T22:17:50.455Z,42.75
2022-12-01T22:27:55.190Z,43.70
2022-12-01T22:38:15.717Z,60.90
2022-12-01T22:48:35.860Z,61.20
2022-12-01T22:58:41.535Z,52.20
2022-12-01T23:08:45.753Z,51.53
2022-12-01T23:18:49.111Z,56.33
2022-12-01T23:28:56.464Z,28.38
2022-12-01T23:39:07.421Z,40.45
2022-12-01T23:49:14.993Z,38.50
2022-12-01T23:59:19.715Z,44.10
